Accueil
METAR-TAF:

METAR-TAF

Aéroports :

Aérodrome de Koné

Koné, Nouvelle-Calédonie

latitude: 21-03-12S, longitude: 164-50-18E, altitude: 7 m

METAR: absent

Heure: 11:34 (00:34 UTC)

Prévision

Le bulletin a été fait il y a 1 heure et 34 minutes, à 23:00 UTC
Prévision valable du 23 à 00 UTC au 23 à 24 UTC
Vent 10 kt de est
Visibilité 10 km ou plus
Nuages épars à une hauteur de 4000 ft
Temporairement
du 23 à 01 UTC au 23 à 07 UTC
Visibilité: 4000 m
Quelques nuages à une hauteur de 2000 ft, Cumulus congestus.
averses de pluie
Probabilité 40% :
Temporairement
du 23 à 02 UTC au 23 à 07 UTC
Visibilité: 2500 m
Nuages fragmentés à une hauteur de 1400 ft
Quelques nuages à une hauteur de 1500 ft, Cumulonimbus.
averses de pluie

TAF: NWWD 222300Z 2300/2324 08010KT 9999 SCT040 TEMPO 2301/2307 4000 SHRA FEW020TCU PROB40 TEMPO 2302/2307 2500 SHRA BKN014 FEW015CB

Observations et prévisions météorologiques de plus de 4000 aéroports (messages METAR et TAF).

Les stations disponibles sont représentées par des disques jaunes et rouges sur la carte.

Passer la souris dessus pour voir le nom de la station.

Cliquer dessus pour voir les observations et prévisions météorologiques.

Pour changer de carte: cliquez sur les boutons verts avec une croix noire pour zoomer, sur le bouton vert avec un tiret pour effectuer un zoom arrière, ou sur les flèches vertes pour les cartes adjacentes.


METAR-TAF: